Impacts METAR Board
IDs:

KATT - Austin/Camp Mabry(NG, TX, US

Updated at: 0100 UTC 06 Dec 2019
Potential Impact None Slight Moderate High
Time 05/13Z 05/14Z 05/15Z 05/16Z 05/17Z 05/18Z 05/19Z 05/20Z 05/21Z 05/22Z 05/23Z 06/00Z 06/01Z
Temp54 55 57 60 65 72 73 71 74 73 71 69 67
Dewpt40 42 45 51 57 59 59 58 58 57 57 58 58
Altim30.03 30.04 30.06 30.08 30.07 30.03 29.99 29.96 29.94 29.94 29.95 29.95 29.96
VIS10 10 10 7 8 10 10 10 10 10 10 10 10
CIG8 8 8 7 10 16 -- -- -- -- -- -- --
CoverOVCOVCOVCOVCOVCOVCSCTFEWCLR----CLRCLR
FltCatIFRIFRIFRIFRMVFRMVFRVFRVFRVFRVFRVFRVFRVFR
WX--------------------------
WDir001501701600000001800
WSpd0 0 3 3 4 6 5 6 5 6 4 5 0
WGst-- -- -- -- -- -- -- 16 -- -- -- -- --
Raw hourly METARs
KATT 051251Z AUTO 00000KT 10SM OVC008 12/04 A3003 RMK AO2 SLP165 T01220044
KATT 051351Z AUTO 00000KT 10SM BKN008 OVC015 13/06 A3004 RMK AO2 CIG 007V012 SLP171 T01280056
KATT 051459Z AUTO 15003KT 10SM BKN008 OVC014 14/07 A3006 RMK AO2 T01390072
KATT 051551Z AUTO 17003KT 7SM OVC007 16/11 A3008 RMK AO2 SLP183 T01560106
KATT 051651Z AUTO 16004KT 8SM OVC010 18/14 A3007 RMK AO2 SLP177 T01830139
KATT 051751Z AUTO VRB06KT 10SM OVC016 22/15 A3003 RMK AO2 SLP165 T02220150 10222 20111 58007
KATT 051900Z AUTO VRB05KT 10SM SCT019 23/15 A2999 RMK AO2 T02280150
KATT 051951Z AUTO VRB06G16KT 10SM FEW021 22/14 A2996 RMK AO2 SLP142 T02170144
KATT 052051Z AUTO VRB05KT 10SM CLR 23/14 A2994 RMK AO2 SLP135 T02330144 56030
KATT 052151Z AUTO VRB06KT 10SM 23/14 A2994 RMK AO2 SLP133 T02280139 $
KATT 052251Z AUTO VRB04KT 10SM 22/14 A2995 RMK AO2 SLP137 T02170139 $
KATT 052351Z AUTO 18005KT 10SM CLR 21/14 A2995 RMK AO2 SLP138 T02060144 10239 20206 53003 $
KATT 060051Z AUTO 00000KT 10SM CLR 19/14 A2996 RMK AO2 SLP143 T01940144 $